createdAt,value
2023-04-15T00:01:19.490Z,5.40
2023-04-15T00:03:48.624Z,5.40
2023-04-15T00:06:16.965Z,5.41
2023-04-15T00:08:46.310Z,5.42
2023-04-15T00:11:15.295Z,5.41
2023-04-15T00:13:44.066Z,5.41
2023-04-15T00:16:12.945Z,5.41
2023-04-15T00:18:41.369Z,5.41
2023-04-15T00:21:09.764Z,5.40
2023-04-15T00:23:38.151Z,5.39
2023-04-15T00:26:06.404Z,5.37
2023-04-15T00:28:34.489Z,5.35
2023-04-15T00:31:04.621Z,5.34
2023-04-15T00:33:32.973Z,5.33
2023-04-15T00:36:01.146Z,5.31
2023-04-15T00:38:29.663Z,5.31
2023-04-15T00:40:57.703Z,5.31
2023-04-15T00:43:26.687Z,5.30
2023-04-15T00:45:57.461Z,5.29
2023-04-15T00:48:28.080Z,5.27
2023-04-15T00:50:56.338Z,5.26
2023-04-15T00:53:24.608Z,5.24
2023-04-15T00:55:53.856Z,5.21
2023-04-15T00:58:21.979Z,5.20
2023-04-15T01:00:54.442Z,5.19
2023-04-15T01:03:23.127Z,5.17
2023-04-15T01:05:58.425Z,5.16
2023-04-15T01:08:30.563Z,5.15
2023-04-15T01:11:02.296Z,5.13
2023-04-15T01:13:31.317Z,5.13
2023-04-15T01:15:59.622Z,5.09
2023-04-15T01:18:28.216Z,5.07
2023-04-15T01:20:56.682Z,5.07
2023-04-15T01:23:25.556Z,5.09
2023-04-15T01:25:54.453Z,5.12
2023-04-15T01:28:22.712Z,5.15
2023-04-15T01:30:51.286Z,5.17
2023-04-15T01:33:19.411Z,5.17
2023-04-15T01:35:48.148Z,5.19
2023-04-15T01:38:16.480Z,5.21
2023-04-15T01:40:46.618Z,5.23
2023-04-15T01:43:15.556Z,5.25
2023-04-15T01:45:43.933Z,5.27
2023-04-15T01:48:12.527Z,5.28
2023-04-15T01:50:43.709Z,5.29
2023-04-15T01:53:12.235Z,5.29
2023-04-15T01:55:41.240Z,5.30
2023-04-15T01:58:17.287Z,5.31
2023-04-15T02:00:48.374Z,5.31
2023-04-15T02:03:18.130Z,5.30
2023-04-15T02:05:46.420Z,5.31
2023-04-15T02:08:14.493Z,5.32
2023-04-15T02:10:42.766Z,5.34
2023-04-15T02:13:11.142Z,5.36
2023-04-15T02:15:39.642Z,5.38
2023-04-15T02:18:08.212Z,5.41
2023-04-15T02:20:38.231Z,5.44
2023-04-15T02:23:07.527Z,5.46
2023-04-15T02:25:37.370Z,5.47
2023-04-15T02:28:06.956Z,5.46
2023-04-15T02:30:35.332Z,5.46
2023-04-15T02:33:04.174Z,5.45
2023-04-15T02:35:32.264Z,5.43
2023-04-15T02:38:12.157Z,5.37
2023-04-15T02:40:40.652Z,5.34
2023-04-15T02:43:09.138Z,5.32
2023-04-15T02:45:37.462Z,5.30
2023-04-15T02:48:26.345Z,5.29
2023-04-15T02:50:54.836Z,5.27
2023-04-15T02:53:22.897Z,5.26
2023-04-15T02:55:51.338Z,5.24
2023-04-15T02:58:19.858Z,5.23
2023-04-15T03:00:51.947Z,5.19
2023-04-15T03:03:20.476Z,5.16
2023-04-15T03:05:48.783Z,5.13
2023-04-15T03:08:17.369Z,5.09
2023-04-15T03:10:45.644Z,5.05
2023-04-15T03:13:14.023Z,5.01
2023-04-15T03:15:42.343Z,4.98
2023-04-15T03:18:11.477Z,4.96
2023-04-15T03:20:41.995Z,4.91
2023-04-15T03:23:10.718Z,4.89
2023-04-15T03:25:39.198Z,4.84
2023-04-15T03:28:10.345Z,4.80
2023-04-15T03:30:38.477Z,4.76
2023-04-15T03:33:07.158Z,4.73
2023-04-15T03:35:35.535Z,4.70
2023-04-15T03:38:03.792Z,4.67
2023-04-15T03:40:32.031Z,4.65
2023-04-15T03:43:00.068Z,4.64
2023-04-15T03:45:28.243Z,4.63
2023-04-15T03:47:57.370Z,4.62
2023-04-15T03:50:28.932Z,4.61
2023-04-15T03:52:57.031Z,4.58
2023-04-15T03:55:25.688Z,4.57
2023-04-15T03:57:53.861Z,4.57
2023-04-15T04:00:22.077Z,4.56
2023-04-15T04:02:50.820Z,4.56
2023-04-15T04:05:19.307Z,4.57
2023-04-15T04:07:47.688Z,4.57
2023-04-15T04:10:15.965Z,4.59
2023-04-15T04:12:44.134Z,4.60
2023-04-15T04:15:12.535Z,4.61
2023-04-15T04:17:40.888Z,4.63
2023-04-15T04:20:09.583Z,4.64
2023-04-15T04:22:40.108Z,4.65
2023-04-15T04:25:10.151Z,4.65
2023-04-15T04:27:38.612Z,4.67
2023-04-15T04:30:08.157Z,4.70
2023-04-15T04:32:36.219Z,4.73
2023-04-15T04:35:05.332Z,4.77
2023-04-15T04:37:33.406Z,4.83
2023-04-15T04:40:01.620Z,4.92
2023-04-15T04:42:30.313Z,5.03
2023-04-15T04:44:58.598Z,5.13
2023-04-15T04:47:27.009Z,5.28
2023-04-15T04:49:55.008Z,5.44
2023-04-15T04:52:23.423Z,5.66
2023-04-15T04:54:51.804Z,5.84
2023-04-15T04:57:23.272Z,5.98
2023-04-15T04:59:51.285Z,6.15
2023-04-15T05:02:19.773Z,6.26
2023-04-15T05:04:48.014Z,6.31
2023-04-15T05:07:16.194Z,6.35
2023-04-15T05:09:44.456Z,6.42
2023-04-15T05:12:15.090Z,6.50
2023-04-15T05:14:43.246Z,6.64
2023-04-15T05:17:11.820Z,6.79
2023-04-15T05:19:40.021Z,6.93
2023-04-15T05:22:08.483Z,7.38
2023-04-15T05:24:36.663Z,8.31
2023-04-15T05:27:05.042Z,8.58
2023-04-15T05:29:36.688Z,8.62
2023-04-15T05:32:05.275Z,8.65
2023-04-15T05:34:33.755Z,8.64
2023-04-15T05:37:02.449Z,8.66
2023-04-15T05:39:32.695Z,8.68
2023-04-15T05:42:02.798Z,8.72
2023-04-15T05:44:31.065Z,8.75
2023-04-15T05:47:00.167Z,8.76
2023-04-15T05:49:28.338Z,8.78
2023-04-15T05:51:56.509Z,8.81
2023-04-15T05:54:26.748Z,8.84
2023-04-15T05:56:54.966Z,8.87
2023-04-15T05:59:23.281Z,8.87
2023-04-15T06:01:52.332Z,8.94
2023-04-15T06:04:20.865Z,9.19
2023-04-15T06:06:49.237Z,9.31
2023-04-15T06:09:19.871Z,9.35
2023-04-15T06:11:48.167Z,9.22
2023-04-15T06:14:16.426Z,9.13
2023-04-15T06:16:44.641Z,9.21
2023-04-15T06:19:16.055Z,9.38
2023-04-15T06:21:44.815Z,9.60
2023-04-15T06:24:13.530Z,9.70
2023-04-15T06:26:50.827Z,9.66
2023-04-15T06:29:22.162Z,9.68
2023-04-15T06:31:50.697Z,9.74
2023-04-15T06:34:19.129Z,9.83
2023-04-15T06:36:47.303Z,9.95
2023-04-15T06:39:15.580Z,10.05
2023-04-15T06:41:43.855Z,11.34
2023-04-15T06:44:11.926Z,14.10
2023-04-15T06:46:40.733Z,16.45
2023-04-15T06:49:08.887Z,19.16
2023-04-15T06:51:37.567Z,20.87
2023-04-15T06:54:06.463Z,20.89
2023-04-15T06:56:38.522Z,20.21
2023-04-15T06:59:06.804Z,19.46
2023-04-15T07:01:35.024Z,18.76
2023-04-15T07:04:24.625Z,18.06
2023-04-15T07:06:53.144Z,17.07
2023-04-15T07:09:22.921Z,16.25
2023-04-15T07:11:51.664Z,15.62
2023-04-15T07:14:19.921Z,15.06
2023-04-15T07:16:48.646Z,14.49
2023-04-15T07:19:17.503Z,14.05
2023-04-15T07:21:45.973Z,13.76
2023-04-15T07:24:17.534Z,13.73
2023-04-15T07:26:54.968Z,13.94
2023-04-15T07:29:26.490Z,14.38
2023-04-15T07:31:54.747Z,14.86
2023-04-15T07:34:23.029Z,15.29
2023-04-15T07:36:52.180Z,15.76
2023-04-15T07:39:22.853Z,16.24
2023-04-15T07:41:51.194Z,16.63
2023-04-15T07:44:19.520Z,16.88
2023-04-15T07:46:48.303Z,17.13
2023-04-15T07:49:16.376Z,17.44
2023-04-15T07:51:44.770Z,17.67
2023-04-15T07:54:12.935Z,17.77
2023-04-15T07:56:41.819Z,17.95
2023-04-15T07:59:10.606Z,17.99
2023-04-15T08:01:39.097Z,17.83
2023-04-15T08:04:07.459Z,17.37
2023-04-15T08:06:36.706Z,17.14
2023-04-15T08:09:05.054Z,17.04
2023-04-15T08:11:33.158Z,17.07
2023-04-15T08:14:01.917Z,17.14
2023-04-15T08:16:30.185Z,17.19
2023-04-15T08:18:58.678Z,17.35
2023-04-15T08:21:27.867Z,17.43
2023-04-15T08:23:56.768Z,17.60
2023-04-15T08:26:25.029Z,17.68
2023-04-15T08:28:53.414Z,17.56
2023-04-15T08:31:22.079Z,17.44
2023-04-15T08:33:52.558Z,17.37
2023-04-15T08:36:21.005Z,17.44
2023-04-15T08:38:49.287Z,17.32
2023-04-15T08:41:23.684Z,17.16
2023-04-15T08:43:58.892Z,17.11
2023-04-15T08:46:27.863Z,16.99
2023-04-15T08:48:57.752Z,16.89
2023-04-15T08:51:27.283Z,16.73
2023-04-15T08:53:55.595Z,16.55
2023-04-15T08:56:29.048Z,16.59
2023-04-15T08:58:57.938Z,16.74
2023-04-15T09:01:26.821Z,17.00
2023-04-15T09:03:59.963Z,17.33
2023-04-15T09:06:28.592Z,17.66
2023-04-15T09:08:57.698Z,17.92
2023-04-15T09:11:29.149Z,18.06
2023-04-15T09:13:57.728Z,17.99
2023-04-15T09:16:26.142Z,17.94
2023-04-15T09:18:54.573Z,18.03
2023-04-15T09:21:23.684Z,18.08
2023-04-15T09:23:56.412Z,18.11
2023-04-15T09:26:35.064Z,18.23
2023-04-15T09:29:08.376Z,18.45
2023-04-15T09:31:37.874Z,18.79
2023-04-15T09:34:07.076Z,19.06
2023-04-15T09:36:49.136Z,19.23
2023-04-15T09:39:19.008Z,19.45
2023-04-15T09:41:47.885Z,19.55
2023-04-15T09:44:26.911Z,19.47
2023-04-15T09:46:55.124Z,19.32
2023-04-15T09:49:23.409Z,19.06
2023-04-15T09:52:04.441Z,18.75
2023-04-15T09:54:38.732Z,18.28
2023-04-15T09:57:10.881Z,17.87
2023-04-15T09:59:40.539Z,17.43
2023-04-15T10:02:08.882Z,17.03
2023-04-15T10:04:52.143Z,16.71
2023-04-15T10:07:22.682Z,16.54
2023-04-15T10:09:51.357Z,16.60
2023-04-15T10:12:21.067Z,16.74
2023-04-15T10:14:56.915Z,16.88
2023-04-15T10:17:31.200Z,17.05
2023-04-15T10:20:13.209Z,17.29
2023-04-15T10:22:42.442Z,17.48
2023-04-15T10:25:18.638Z,17.60
2023-04-15T10:27:48.826Z,17.64
2023-04-15T10:30:17.641Z,17.59
2023-04-15T10:32:46.432Z,17.61
2023-04-15T10:35:15.198Z,17.65
2023-04-15T10:37:53.499Z,17.71
2023-04-15T10:40:32.231Z,17.76
2023-04-15T10:43:02.889Z,17.81
2023-04-15T10:45:39.223Z,17.96
2023-04-15T10:48:10.033Z,18.09
2023-04-15T10:50:39.533Z,18.26
2023-04-15T10:53:10.746Z,18.40
2023-04-15T10:55:41.544Z,18.53
2023-04-15T10:58:13.626Z,18.63
2023-04-15T11:01:00.139Z,18.83
2023-04-15T11:03:39.322Z,19.01
2023-04-15T11:06:16.735Z,19.03
2023-04-15T11:09:26.964Z,19.14
2023-04-15T11:12:13.619Z,19.21
2023-04-15T11:14:43.499Z,19.25
2023-04-15T11:17:12.019Z,19.25
2023-04-15T11:19:40.282Z,19.18
2023-04-15T11:22:12.698Z,19.09
2023-04-15T11:24:50.603Z,19.06
2023-04-15T11:27:23.500Z,18.97
2023-04-15T11:29:52.446Z,18.88
2023-04-15T11:32:21.819Z,18.83
2023-04-15T11:34:52.173Z,18.90
2023-04-15T11:37:29.346Z,19.03
2023-04-15T11:39:57.413Z,19.18
2023-04-15T11:42:26.879Z,19.23
2023-04-15T11:45:11.072Z,19.14
2023-04-15T11:47:40.252Z,19.07
2023-04-15T11:50:18.120Z,19.13
2023-04-15T11:52:57.421Z,19.21
2023-04-15T11:55:26.403Z,19.14
2023-04-15T11:58:19.678Z,19.00
2023-04-15T12:00:54.216Z,18.75
2023-04-15T12:03:26.052Z,18.73
2023-04-15T12:06:22.068Z,18.71
2023-04-15T12:09:00.523Z,18.78
2023-04-15T12:11:37.320Z,18.82
2023-04-15T12:14:13.116Z,18.85
2023-04-15T12:16:54.287Z,18.90
2023-04-15T12:19:42.956Z,18.77
2023-04-15T12:22:16.155Z,18.65
2023-04-15T12:24:48.040Z,18.60
2023-04-15T12:27:17.423Z,18.66
2023-04-15T12:29:45.525Z,18.59
2023-04-15T12:32:20.989Z,18.64
2023-04-15T12:34:54.392Z,18.64
2023-04-15T12:37:23.153Z,18.65
2023-04-15T12:39:52.515Z,18.64
2023-04-15T12:42:20.898Z,18.61
2023-04-15T12:44:49.071Z,18.54
2023-04-15T12:47:17.385Z,18.59
2023-04-15T12:49:45.939Z,18.57
2023-04-15T12:52:15.237Z,18.51
2023-04-15T12:54:43.412Z,18.38
2023-04-15T12:57:11.694Z,18.40
2023-04-15T12:59:40.166Z,18.38
2023-04-15T13:02:08.287Z,18.28
2023-04-15T13:04:37.003Z,18.17
2023-04-15T13:07:05.203Z,17.95
2023-04-15T13:09:33.578Z,17.96
2023-04-15T13:12:01.755Z,18.08
2023-04-15T13:14:30.188Z,18.12
2023-04-15T13:16:59.533Z,18.07
2023-04-15T13:19:27.931Z,17.85
2023-04-15T13:21:56.333Z,17.51
2023-04-15T13:24:24.468Z,17.20
2023-04-15T13:26:53.664Z,16.96
2023-04-15T13:29:22.365Z,16.71
2023-04-15T13:31:50.702Z,16.65
2023-04-15T13:34:18.903Z,16.65
2023-04-15T13:36:47.430Z,16.72
2023-04-15T13:39:15.781Z,16.84
2023-04-15T13:41:43.850Z,16.82
2023-04-15T13:44:12.792Z,16.77
2023-04-15T13:46:42.683Z,16.64
2023-04-15T13:49:10.834Z,16.49
2023-04-15T13:51:38.993Z,16.40
2023-04-15T13:54:07.668Z,16.33
2023-04-15T13:56:36.163Z,16.34
2023-04-15T13:59:04.550Z,16.47
2023-04-15T14:01:32.855Z,16.58
2023-04-15T14:04:01.575Z,16.60
2023-04-15T14:06:31.742Z,16.69
2023-04-15T14:09:00.004Z,16.80
2023-04-15T14:11:30.950Z,16.90
2023-04-15T14:13:59.012Z,17.03
2023-04-15T14:16:27.350Z,17.08
2023-04-15T14:18:57.990Z,17.05
2023-04-15T14:21:30.111Z,16.93
2023-04-15T14:23:58.979Z,16.80
2023-04-15T14:26:30.022Z,16.75
2023-04-15T14:28:58.253Z,16.73
2023-04-15T14:31:26.565Z,16.66
2023-04-15T14:33:54.955Z,16.57
2023-04-15T14:36:23.088Z,16.50
2023-04-15T14:38:51.299Z,16.43
2023-04-15T14:41:19.629Z,16.35
2023-04-15T14:43:47.844Z,16.24
2023-04-15T14:46:16.353Z,16.11
2023-04-15T14:48:44.714Z,16.05
2023-04-15T14:51:13.243Z,15.94
2023-04-15T14:53:41.481Z,15.86
2023-04-15T14:56:09.751Z,15.80
2023-04-15T14:58:38.035Z,15.77
2023-04-15T15:01:06.768Z,15.64
2023-04-15T15:03:35.396Z,15.55
2023-04-15T15:06:04.190Z,15.45
2023-04-15T15:08:32.475Z,15.37
2023-04-15T15:11:00.643Z,15.33
2023-04-15T15:13:28.816Z,15.28
2023-04-15T15:15:59.860Z,15.24
2023-04-15T15:18:28.341Z,15.17
2023-04-15T15:20:56.415Z,15.06
2023-04-15T15:23:24.502Z,14.84
2023-04-15T15:25:52.877Z,14.62
2023-04-15T15:28:21.967Z,14.45
2023-04-15T15:30:49.930Z,14.19
2023-04-15T15:33:21.790Z,13.90
2023-04-15T15:35:53.669Z,13.63
2023-04-15T15:38:40.791Z,13.43
2023-04-15T15:41:09.053Z,13.27
2023-04-15T15:43:37.429Z,13.14
2023-04-15T15:46:05.955Z,13.02
2023-04-15T15:48:34.420Z,12.93
2023-04-15T15:51:11.560Z,12.87
2023-04-15T15:53:39.852Z,12.85
2023-04-15T15:56:08.232Z,12.89
2023-04-15T15:58:36.412Z,12.93
2023-04-15T16:01:04.926Z,12.92
2023-04-15T16:03:33.354Z,12.92
2023-04-15T16:06:01.747Z,12.92
2023-04-15T16:08:29.919Z,12.92
2023-04-15T16:10:58.405Z,12.89
2023-04-15T16:13:26.553Z,12.90
2023-04-15T16:15:54.659Z,12.94
2023-04-15T16:18:22.939Z,12.99
2023-04-15T16:20:51.334Z,13.02
2023-04-15T16:23:20.133Z,13.05
2023-04-15T16:25:51.563Z,13.10
2023-04-15T16:28:26.443Z,13.13
2023-04-15T16:30:56.390Z,13.14
2023-04-15T16:33:24.666Z,13.11
2023-04-15T16:35:53.048Z,13.07
2023-04-15T16:38:21.534Z,13.04
2023-04-15T16:40:50.042Z,13.00
2023-04-15T16:43:18.398Z,12.96
2023-04-15T16:45:51.076Z,12.90
2023-04-15T16:48:20.637Z,12.84
2023-04-15T16:50:49.323Z,12.77
2023-04-15T16:53:17.932Z,12.68
2023-04-15T16:55:46.034Z,12.58
2023-04-15T16:58:14.507Z,12.46
2023-04-15T17:00:43.671Z,12.33
2023-04-15T17:03:12.205Z,12.19
2023-04-15T17:05:42.382Z,12.03
2023-04-15T17:08:10.907Z,11.86
2023-04-15T17:10:41.722Z,11.67
2023-04-15T17:13:10.178Z,11.50
2023-04-15T17:15:38.475Z,11.33
2023-04-15T17:18:06.597Z,11.17
2023-04-15T17:20:34.940Z,11.01
2023-04-15T17:23:04.229Z,10.85
2023-04-15T17:25:32.421Z,10.69
2023-04-15T17:28:00.835Z,10.54
2023-04-15T17:30:29.075Z,10.37
2023-04-15T17:32:57.243Z,10.20
2023-04-15T17:35:26.339Z,10.03
2023-04-15T17:37:54.615Z,9.88
2023-04-15T17:40:22.886Z,9.72
2023-04-15T17:42:51.278Z,9.59
2023-04-15T17:45:19.465Z,9.47
2023-04-15T17:47:48.397Z,9.35
2023-04-15T17:50:16.554Z,9.27
2023-04-15T17:52:44.889Z,9.19
2023-04-15T17:55:15.998Z,9.11
2023-04-15T17:57:46.310Z,9.06
2023-04-15T18:00:14.913Z,9.03
2023-04-15T18:02:43.357Z,9.01
2023-04-15T18:05:12.365Z,9.02
2023-04-15T18:07:40.587Z,9.05
2023-04-15T18:10:12.613Z,9.07
2023-04-15T18:12:40.949Z,9.06
2023-04-15T18:15:10.073Z,9.04
2023-04-15T18:17:38.280Z,9.02
2023-04-15T18:20:07.149Z,9.02
2023-04-15T18:22:35.676Z,9.02
2023-04-15T18:25:04.766Z,9.03
2023-04-15T18:27:34.389Z,9.03
2023-04-15T18:30:02.616Z,9.03
2023-04-15T18:32:33.016Z,9.03
2023-04-15T18:35:01.586Z,9.01
2023-04-15T18:37:29.690Z,9.00
2023-04-15T18:40:00.530Z,8.98
2023-04-15T18:42:28.870Z,8.95
2023-04-15T18:45:06.976Z,8.90
2023-04-15T18:47:35.481Z,8.90
2023-04-15T18:50:04.133Z,8.89
2023-04-15T18:52:33.850Z,8.87
2023-04-15T18:55:03.416Z,8.84
2023-04-15T18:57:35.150Z,8.79
2023-04-15T19:00:05.637Z,8.75
2023-04-15T19:02:33.982Z,8.70
2023-04-15T19:05:04.518Z,8.64
2023-04-15T19:07:43.265Z,8.57
2023-04-15T19:10:19.322Z,8.52
2023-04-15T19:12:50.773Z,8.46
2023-04-15T19:15:19.187Z,8.41
2023-04-15T19:17:47.528Z,8.36
2023-04-15T19:20:30.151Z,8.31
2023-04-15T19:23:11.328Z,8.25
2023-04-15T19:25:50.341Z,8.20
2023-04-15T19:28:18.575Z,8.15
2023-04-15T19:30:46.843Z,8.10
2023-04-15T19:33:18.359Z,8.07
2023-04-15T19:35:49.930Z,8.03
2023-04-15T19:38:24.236Z,8.01
2023-04-15T19:40:53.330Z,8.00
2023-04-15T19:43:21.814Z,8.01
2023-04-15T19:45:53.105Z,8.02
2023-04-15T19:48:22.796Z,8.04
2023-04-15T19:50:51.044Z,8.06
2023-04-15T19:53:19.319Z,8.08
2023-04-15T19:55:48.526Z,8.09
2023-04-15T19:58:16.815Z,8.10
2023-04-15T20:00:44.801Z,8.11
2023-04-15T20:03:13.380Z,8.12
2023-04-15T20:05:42.151Z,8.13
2023-04-15T20:08:10.336Z,8.14
2023-04-15T20:10:38.763Z,8.15
2023-04-15T20:13:07.177Z,8.16
2023-04-15T20:15:35.601Z,8.16
2023-04-15T20:18:04.131Z,8.16
2023-04-15T20:20:34.479Z,8.16
2023-04-15T20:23:02.736Z,8.16
2023-04-15T20:25:31.116Z,8.14
2023-04-15T20:28:02.870Z,8.11
2023-04-15T20:30:34.331Z,8.08
2023-04-15T20:33:02.664Z,8.05
2023-04-15T20:35:31.132Z,8.01
2023-04-15T20:37:59.875Z,7.97
2023-04-15T20:40:28.667Z,7.91
2023-04-15T20:42:56.837Z,7.85
2023-04-15T20:45:24.902Z,7.78
2023-04-15T20:47:54.852Z,7.74
2023-04-15T20:50:23.038Z,7.71
2023-04-15T20:52:52.193Z,7.69
2023-04-15T20:55:20.677Z,7.67
2023-04-15T20:57:48.977Z,7.64
2023-04-15T21:00:17.236Z,7.61
2023-04-15T21:02:45.402Z,7.57
2023-04-15T21:05:13.686Z,7.55
2023-04-15T21:07:41.884Z,7.51
2023-04-15T21:10:10.694Z,7.46
2023-04-15T21:12:40.893Z,7.38
2023-04-15T21:15:09.765Z,7.31
2023-04-15T21:17:38.714Z,7.26
2023-04-15T21:20:07.674Z,7.22
2023-04-15T21:22:38.896Z,7.17
2023-04-15T21:25:07.580Z,7.13
2023-04-15T21:27:35.752Z,7.07
2023-04-15T21:30:04.646Z,6.98
2023-04-15T21:32:32.776Z,6.88
2023-04-15T21:35:01.303Z,6.81
2023-04-15T21:37:29.539Z,6.72
2023-04-15T21:39:57.751Z,6.64
2023-04-15T21:42:26.294Z,6.56
2023-04-15T21:44:54.491Z,6.47
2023-04-15T21:47:22.814Z,6.37
2023-04-15T21:49:51.271Z,6.27
2023-04-15T21:52:19.442Z,6.17
2023-04-15T21:54:47.624Z,6.08
2023-04-15T21:57:15.900Z,5.98
2023-04-15T21:59:44.168Z,5.90
2023-04-15T22:02:12.599Z,5.81
2023-04-15T22:04:41.143Z,5.72
2023-04-15T22:07:09.211Z,5.64
2023-04-15T22:09:37.377Z,5.54
2023-04-15T22:12:05.986Z,5.46
2023-04-15T22:14:34.138Z,5.38
2023-04-15T22:17:02.252Z,5.31
2023-04-15T22:19:32.789Z,5.23
2023-04-15T22:22:03.438Z,5.15
2023-04-15T22:24:39.910Z,5.07
2023-04-15T22:27:09.652Z,5.00
2023-04-15T22:29:37.826Z,4.93
2023-04-15T22:32:07.139Z,4.86
2023-04-15T22:34:35.330Z,4.79
2023-04-15T22:37:03.589Z,4.74
2023-04-15T22:39:31.729Z,4.68
2023-04-15T22:41:59.731Z,4.63
2023-04-15T22:44:27.804Z,4.56
2023-04-15T22:46:56.196Z,4.49
2023-04-15T22:49:24.870Z,4.45
2023-04-15T22:51:53.462Z,4.41
2023-04-15T22:54:21.833Z,4.38
2023-04-15T22:56:50.216Z,4.35
2023-04-15T22:59:18.385Z,4.30
2023-04-15T23:01:46.841Z,4.26
2023-04-15T23:04:23.718Z,4.22
2023-04-15T23:06:54.385Z,4.19
2023-04-15T23:09:23.595Z,4.15
2023-04-15T23:11:56.304Z,4.10
2023-04-15T23:14:28.176Z,4.05
2023-04-15T23:17:07.032Z,4.02
2023-04-15T23:19:38.095Z,3.97
2023-04-15T23:22:07.372Z,3.93
2023-04-15T23:24:35.753Z,3.88
2023-04-15T23:27:04.191Z,3.82
2023-04-15T23:29:32.318Z,3.77
2023-04-15T23:32:00.612Z,3.74
2023-04-15T23:34:28.782Z,3.70
2023-04-15T23:36:57.138Z,3.66
2023-04-15T23:39:25.116Z,3.59
2023-04-15T23:41:53.664Z,3.53
2023-04-15T23:44:22.430Z,3.50
2023-04-15T23:46:51.443Z,3.47
2023-04-15T23:49:20.473Z,3.44
2023-04-15T23:51:48.843Z,3.42
2023-04-15T23:54:17.026Z,3.39
2023-04-15T23:56:45.014Z,3.36
2023-04-15T23:59:13.070Z,3.34
